sensor_id;sensor_type;location;lat;lon;timestamp;pressure;altitude;pressure_sealevel;temperature;humidity
64886;BME280;51514;52.206;5.114;2024-03-06T00:02:08;101885.88;;;9.84;87.92
64886;BME280;51514;52.206;5.114;2024-03-06T00:04:34;101887.34;;;9.88;87.64
64886;BME280;51514;52.206;5.114;2024-03-06T00:07:00;101888.19;;;9.89;87.69
64886;BME280;51514;52.206;5.114;2024-03-06T00:09:26;101888.94;;;9.91;87.60
64886;BME280;51514;52.206;5.114;2024-03-06T00:11:55;101886.84;;;9.95;87.58
64886;BME280;51514;52.206;5.114;2024-03-06T00:14:21;101891.09;;;9.97;87.60
64886;BME280;51514;52.206;5.114;2024-03-06T00:16:50;101902.72;;;9.98;87.46
64886;BME280;51514;52.206;5.114;2024-03-06T00:19:18;101896.38;;;9.99;87.25
64886;BME280;51514;52.206;5.114;2024-03-06T00:21:44;101904.44;;;9.99;86.99
64886;BME280;51514;52.206;5.114;2024-03-06T00:24:11;101901.75;;;9.99;87.15
64886;BME280;51514;52.206;5.114;2024-03-06T00:26:39;101905.19;;;10.01;87.15
64886;BME280;51514;52.206;5.114;2024-03-06T00:29:05;101913.25;;;10.01;86.86
64886;BME280;51514;52.206;5.114;2024-03-06T00:31:30;101910.56;;;10.01;86.82
64886;BME280;51514;52.206;5.114;2024-03-06T00:33:56;101919.63;;;10.00;86.70
64886;BME280;51514;52.206;5.114;2024-03-06T00:36:21;101902.72;;;9.98;86.66
64886;BME280;51514;52.206;5.114;2024-03-06T00:38:47;101910.94;;;9.96;86.71
64886;BME280;51514;52.206;5.114;2024-03-06T00:41:13;101906.53;;;9.95;86.53
64886;BME280;51514;52.206;5.114;2024-03-06T00:43:38;101912.06;;;9.94;86.38
64886;BME280;51514;52.206;5.114;2024-03-06T00:46:03;101902.16;;;9.94;86.53
64886;BME280;51514;52.206;5.114;2024-03-06T00:48:29;101906.69;;;9.94;86.31
64886;BME280;51514;52.206;5.114;2024-03-06T00:50:54;101914.91;;;9.92;86.42
64886;BME280;51514;52.206;5.114;2024-03-06T00:53:19;101902.41;;;9.91;86.66
64886;BME280;51514;52.206;5.114;2024-03-06T00:55:45;101917.72;;;9.91;86.47
64886;BME280;51514;52.206;5.114;2024-03-06T00:58:10;101913.19;;;9.91;86.42
64886;BME280;51514;52.206;5.114;2024-03-06T01:00:36;101913.19;;;9.91;86.50
64886;BME280;51514;52.206;5.114;2024-03-06T01:03:01;101915.88;;;9.91;86.40
64886;BME280;51514;52.206;5.114;2024-03-06T01:05:27;101921.38;;;9.89;86.38
64886;BME280;51514;52.206;5.114;2024-03-06T01:07:52;101918.56;;;9.91;86.39
64886;BME280;51514;52.206;5.114;2024-03-06T01:10:19;101925.66;;;9.92;86.10
64886;BME280;51514;52.206;5.114;2024-03-06T01:12:45;101931.91;;;9.93;86.39
64886;BME280;51514;52.206;5.114;2024-03-06T01:15:11;101932.03;;;9.91;86.02
64886;BME280;51514;52.206;5.114;2024-03-06T01:17:36;101925.06;;;9.88;86.33
64886;BME280;51514;52.206;5.114;2024-03-06T01:20:02;101923.47;;;9.86;86.28
64886;BME280;51514;52.206;5.114;2024-03-06T01:22:29;101933.38;;;9.85;86.16
64886;BME280;51514;52.206;5.114;2024-03-06T01:24:54;101932.53;;;9.85;86.21
64886;BME280;51514;52.206;5.114;2024-03-06T01:27:19;101932.53;;;9.85;86.26
64886;BME280;51514;52.206;5.114;2024-03-06T01:29:45;101931.56;;;9.86;86.32
64886;BME280;51514;52.206;5.114;2024-03-06T01:32:11;101928.00;;;9.85;86.27
64886;BME280;51514;52.206;5.114;2024-03-06T01:34:36;101928.00;;;9.85;86.26
64886;BME280;51514;52.206;5.114;2024-03-06T01:37:02;101936.09;;;9.85;85.73
64886;BME280;51514;52.206;5.114;2024-03-06T01:39:28;101936.09;;;9.85;85.81
64886;BME280;51514;52.206;5.114;2024-03-06T01:41:53;101937.06;;;9.84;86.05
64886;BME280;51514;52.206;5.114;2024-03-06T01:44:19;101938.78;;;9.85;85.93
64886;BME280;51514;52.206;5.114;2024-03-06T01:46:44;101946.00;;;9.85;86.01
64886;BME280;51514;52.206;5.114;2024-03-06T01:49:15;101945.16;;;9.84;85.76
64886;BME280;51514;52.206;5.114;2024-03-06T01:51:42;101934.38;;;9.84;85.63
64886;BME280;51514;52.206;5.114;2024-03-06T01:54:09;101942.59;;;9.83;85.67
64886;BME280;51514;52.206;5.114;2024-03-06T01:56:35;101943.59;;;9.82;85.89
64886;BME280;51514;52.206;5.114;2024-03-06T01:59:02;101942.72;;;9.81;86.02
64886;BME280;51514;52.206;5.114;2024-03-06T02:01:29;101941.25;;;9.77;85.66
64886;BME280;51514;52.206;5.114;2024-03-06T02:03:56;101941.66;;;9.73;85.50
64886;BME280;51514;52.206;5.114;2024-03-06T02:06:22;101947.16;;;9.71;85.46
64886;BME280;51514;52.206;5.114;2024-03-06T02:08:47;101948.16;;;9.70;85.74
64886;BME280;51514;52.206;5.114;2024-03-06T02:11:13;101960.63;;;9.71;85.72
64886;BME280;51514;52.206;5.114;2024-03-06T02:13:41;101951.69;;;9.71;85.73
64886;BME280;51514;52.206;5.114;2024-03-06T02:16:07;101958.91;;;9.70;85.25
64886;BME280;51514;52.206;5.114;2024-03-06T02:18:33;101962.59;;;9.69;85.27
64886;BME280;51514;52.206;5.114;2024-03-06T02:20:58;101960.88;;;9.68;85.28
64886;BME280;51514;52.206;5.114;2024-03-06T02:23:24;101960.88;;;9.68;85.03
64886;BME280;51514;52.206;5.114;2024-03-06T02:25:50;101968.22;;;9.66;85.07
64886;BME280;51514;52.206;5.114;2024-03-06T02:28:16;101969.19;;;9.65;85.03
64886;BME280;51514;52.206;5.114;2024-03-06T02:30:42;101962.81;;;9.66;85.31
64886;BME280;51514;52.206;5.114;2024-03-06T02:33:08;101969.06;;;9.67;85.27
64886;BME280;51514;52.206;5.114;2024-03-06T02:35:34;101964.66;;;9.66;84.68
64886;BME280;51514;52.206;5.114;2024-03-06T02:38:01;101964.78;;;9.64;84.72
64886;BME280;51514;52.206;5.114;2024-03-06T02:40:28;101953.31;;;9.62;84.61
64886;BME280;51514;52.206;5.114;2024-03-06T02:42:54;101952.06;;;9.55;84.48
64886;BME280;51514;52.206;5.114;2024-03-06T02:45:19;101957.59;;;9.53;84.94
64886;BME280;51514;52.206;5.114;2024-03-06T02:47:45;101954.03;;;9.53;84.94
64886;BME280;51514;52.206;5.114;2024-03-06T02:50:10;101953.06;;;9.54;84.95
64886;BME280;51514;52.206;5.114;2024-03-06T02:52:36;101949.50;;;9.53;84.85
64886;BME280;51514;52.206;5.114;2024-03-06T02:55:01;101962.00;;;9.55;84.79
64886;BME280;51514;52.206;5.114;2024-03-06T02:57:27;101961.13;;;9.54;85.15
64886;BME280;51514;52.206;5.114;2024-03-06T02:59:57;101964.09;;;9.51;84.83
64886;BME280;51514;52.206;5.114;2024-03-06T03:02:22;101963.47;;;9.47;85.07
64886;BME280;51514;52.206;5.114;2024-03-06T03:04:49;101962.63;;;9.47;84.87
64886;BME280;51514;52.206;5.114;2024-03-06T03:07:14;101972.53;;;9.46;85.25
64886;BME280;51514;52.206;5.114;2024-03-06T03:09:39;101973.63;;;9.44;84.97
64886;BME280;51514;52.206;5.114;2024-03-06T03:12:05;101973.16;;;9.39;85.08
64886;BME280;51514;52.206;5.114;2024-03-06T03:14:31;101982.22;;;9.38;84.78
64886;BME280;51514;52.206;5.114;2024-03-06T03:16:56;101973.28;;;9.37;84.95
64886;BME280;51514;52.206;5.114;2024-03-06T03:19:22;101969.00;;;9.35;85.07
64886;BME280;51514;52.206;5.114;2024-03-06T03:21:47;101968.13;;;9.34;84.86
64886;BME280;51514;52.206;5.114;2024-03-06T03:24:12;101968.38;;;9.31;84.74
64886;BME280;51514;52.206;5.114;2024-03-06T03:26:38;101971.22;;;9.30;84.92
64886;BME280;51514;52.206;5.114;2024-03-06T03:29:03;101971.44;;;9.27;84.11
64886;BME280;51514;52.206;5.114;2024-03-06T03:31:29;101969.13;;;9.22;84.60
64886;BME280;51514;52.206;5.114;2024-03-06T03:33:54;101980.00;;;9.21;84.85
64886;BME280;51514;52.206;5.114;2024-03-06T03:36:19;101980.00;;;9.21;84.72
64886;BME280;51514;52.206;5.114;2024-03-06T03:38:45;101977.44;;;9.19;85.03
64886;BME280;51514;52.206;5.114;2024-03-06T03:41:11;101976.59;;;9.19;85.03
64886;BME280;51514;52.206;5.114;2024-03-06T03:43:42;101989.31;;;9.17;85.51
64886;BME280;51514;52.206;5.114;2024-03-06T03:46:07;101984.91;;;9.15;85.54
64886;BME280;51514;52.206;5.114;2024-03-06T03:48:34;101985.13;;;9.12;85.74
64886;BME280;51514;52.206;5.114;2024-03-06T03:51:02;101986.84;;;9.13;86.30
64886;BME280;51514;52.206;5.114;2024-03-06T03:53:29;101995.66;;;9.15;86.31
64886;BME280;51514;52.206;5.114;2024-03-06T03:55:55;101997.38;;;9.17;86.20
64886;BME280;51514;52.206;5.114;2024-03-06T03:58:20;101992.13;;;9.15;85.86
64886;BME280;51514;52.206;5.114;2024-03-06T04:00:45;101996.53;;;9.16;85.84
64886;BME280;51514;52.206;5.114;2024-03-06T04:03:11;101991.13;;;9.16;85.99
64886;BME280;51514;52.206;5.114;2024-03-06T04:05:37;101989.19;;;9.18;85.81
64886;BME280;51514;52.206;5.114;2024-03-06T04:08:02;101993.72;;;9.18;85.83
64886;BME280;51514;52.206;5.114;2024-03-06T04:10:28;101987.72;;;9.14;85.59
64886;BME280;51514;52.206;5.114;2024-03-06T04:12:54;101990.75;;;9.09;85.31
64886;BME280;51514;52.206;5.114;2024-03-06T04:15:19;101992.09;;;9.04;85.73
64886;BME280;51514;52.206;5.114;2024-03-06T04:17:45;101990.03;;;8.96;86.27
64886;BME280;51514;52.206;5.114;2024-03-06T04:20:10;101986.81;;;8.91;85.88
64886;BME280;51514;52.206;5.114;2024-03-06T04:22:38;101994.16;;;8.89;86.80
64886;BME280;51514;52.206;5.114;2024-03-06T04:25:04;101993.19;;;8.90;86.24
64886;BME280;51514;52.206;5.114;2024-03-06T04:27:30;102000.16;;;8.93;86.48
64886;BME280;51514;52.206;5.114;2024-03-06T04:29:55;102000.16;;;8.93;86.36
64886;BME280;51514;52.206;5.114;2024-03-06T04:32:20;102005.53;;;8.93;86.92
64886;BME280;51514;52.206;5.114;2024-03-06T04:34:46;102000.03;;;8.94;86.35
64886;BME280;51514;52.206;5.114;2024-03-06T04:37:11;102008.00;;;8.96;86.43
64886;BME280;51514;52.206;5.114;2024-03-06T04:39:37;102016.19;;;8.94;85.81
64886;BME280;51514;52.206;5.114;2024-03-06T04:42:03;102008.97;;;8.95;85.67
64886;BME280;51514;52.206;5.114;2024-03-06T04:44:28;102019.84;;;8.93;85.50
64886;BME280;51514;52.206;5.114;2024-03-06T04:46:54;102020.06;;;8.90;85.71
64886;BME280;51514;52.206;5.114;2024-03-06T04:49:19;102022.28;;;8.85;85.64
64886;BME280;51514;52.206;5.114;2024-03-06T04:51:47;102029.59;;;8.83;85.91
64886;BME280;51514;52.206;5.114;2024-03-06T04:54:13;102030.81;;;8.79;86.07
64886;BME280;51514;52.206;5.114;2024-03-06T04:56:38;102033.75;;;8.76;86.23
64886;BME280;51514;52.206;5.114;2024-03-06T04:59:04;102033.00;;;8.74;85.93
64886;BME280;51514;52.206;5.114;2024-03-06T05:01:30;102034.09;;;8.71;86.27
64886;BME280;51514;52.206;5.114;2024-03-06T05:03:55;102042.28;;;8.70;85.73
64886;BME280;51514;52.206;5.114;2024-03-06T05:06:22;102045.94;;;8.69;85.86
64886;BME280;51514;52.206;5.114;2024-03-06T05:08:48;102043.47;;;8.66;85.49
64886;BME280;51514;52.206;5.114;2024-03-06T05:11:14;102050.19;;;8.60;85.37
64886;BME280;51514;52.206;5.114;2024-03-06T05:13:39;102043.44;;;8.55;85.96
64886;BME280;51514;52.206;5.114;2024-03-06T05:16:05;102045.63;;;8.50;85.34
64886;BME280;51514;52.206;5.114;2024-03-06T05:18:30;102041.56;;;8.44;85.81
64886;BME280;51514;52.206;5.114;2024-03-06T05:20:56;102037.63;;;8.37;85.17
64886;BME280;51514;52.206;5.114;2024-03-06T05:23:21;102038.06;;;8.31;85.26
64886;BME280;51514;52.206;5.114;2024-03-06T05:25:48;102046.56;;;8.25;85.26
64886;BME280;51514;52.206;5.114;2024-03-06T05:28:13;102051.03;;;8.13;85.57
64886;BME280;51514;52.206;5.114;2024-03-06T05:30:39;102058.03;;;8.03;85.91
64886;BME280;51514;52.206;5.114;2024-03-06T05:33:04;102068.50;;;7.95;85.66
64886;BME280;51514;52.206;5.114;2024-03-06T05:35:30;102070.66;;;7.90;85.44
64886;BME280;51514;52.206;5.114;2024-03-06T05:37:55;102069.28;;;7.84;85.29
64886;BME280;51514;52.206;5.114;2024-03-06T05:40:22;102070.34;;;7.82;85.60
64886;BME280;51514;52.206;5.114;2024-03-06T05:42:47;102073.13;;;7.80;85.27
64886;BME280;51514;52.206;5.114;2024-03-06T05:45:12;102085.84;;;7.78;85.45
64886;BME280;51514;52.206;5.114;2024-03-06T05:47:38;102084.97;;;7.78;85.71
64886;BME280;51514;52.206;5.114;2024-03-06T05:50:07;102090.47;;;7.76;86.03
64886;BME280;51514;52.206;5.114;2024-03-06T05:52:33;102089.72;;;7.74;86.40
64886;BME280;51514;52.206;5.114;2024-03-06T05:55:01;102097.88;;;7.73;86.23
64886;BME280;51514;52.206;5.114;2024-03-06T05:57:27;102097.09;;;7.70;85.73
64886;BME280;51514;52.206;5.114;2024-03-06T05:59:52;102101.84;;;7.67;85.69
64886;BME280;51514;52.206;5.114;2024-03-06T06:02:18;102106.56;;;7.63;85.68
64886;BME280;51514;52.206;5.114;2024-03-06T06:04:44;102110.34;;;7.61;85.33
64886;BME280;51514;52.206;5.114;2024-03-06T06:07:10;102111.41;;;7.58;85.11
64886;BME280;51514;52.206;5.114;2024-03-06T06:09:35;102118.81;;;7.55;85.16
64886;BME280;51514;52.206;5.114;2024-03-06T06:12:00;102122.78;;;7.49;84.54
64886;BME280;51514;52.206;5.114;2024-03-06T06:14:26;102120.44;;;7.45;85.40
64886;BME280;51514;52.206;5.114;2024-03-06T06:16:56;102125.16;;;7.41;84.31
64886;BME280;51514;52.206;5.114;2024-03-06T06:19:22;102120.84;;;7.39;84.52
64886;BME280;51514;52.206;5.114;2024-03-06T06:21:47;102128.16;;;7.37;85.54
64886;BME280;51514;52.206;5.114;2024-03-06T06:24:13;102134.38;;;7.37;85.58
64886;BME280;51514;52.206;5.114;2024-03-06T06:26:39;102145.66;;;7.42;85.81
64886;BME280;51514;52.206;5.114;2024-03-06T06:29:04;102140.81;;;7.47;85.80
64886;BME280;51514;52.206;5.114;2024-03-06T06:31:30;102144.06;;;7.52;86.48
64886;BME280;51514;52.206;5.114;2024-03-06T06:33:55;102147.25;;;7.57;86.67
64886;BME280;51514;52.206;5.114;2024-03-06T06:36:20;102155.00;;;7.62;86.83
64886;BME280;51514;52.206;5.114;2024-03-06T06:38:49;102159.91;;;7.68;86.98
64886;BME280;51514;52.206;5.114;2024-03-06T06:41:16;102168.31;;;7.76;86.83
64886;BME280;51514;52.206;5.114;2024-03-06T06:43:42;102172.28;;;7.83;87.13
64886;BME280;51514;52.206;5.114;2024-03-06T06:46:08;102163.66;;;7.91;86.92
64886;BME280;51514;52.206;5.114;2024-03-06T06:48:33;102172.16;;;7.97;87.29
64886;BME280;51514;52.206;5.114;2024-03-06T06:51:01;102171.50;;;8.06;86.88
64886;BME280;51514;52.206;5.114;2024-03-06T06:53:29;102172.44;;;8.18;87.28
64886;BME280;51514;52.206;5.114;2024-03-06T06:55:54;102178.88;;;8.28;87.14
64886;BME280;51514;52.206;5.114;2024-03-06T06:58:19;102186.28;;;8.37;86.37
64886;BME280;51514;52.206;5.114;2024-03-06T07:00:45;102183.03;;;8.45;86.41
64886;BME280;51514;52.206;5.114;2024-03-06T07:03:10;102183.69;;;8.49;85.83
64886;BME280;51514;52.206;5.114;2024-03-06T07:05:36;102183.56;;;8.50;86.03
64886;BME280;51514;52.206;5.114;2024-03-06T07:08:01;102196.78;;;8.53;85.47
64886;BME280;51514;52.206;5.114;2024-03-06T07:10:27;102183.09;;;8.56;85.38
64886;BME280;51514;52.206;5.114;2024-03-06T07:12:52;102203.75;;;8.56;84.08
64886;BME280;51514;52.206;5.114;2024-03-06T07:15:18;102208.16;;;8.57;84.02
64886;BME280;51514;52.206;5.114;2024-03-06T07:17:43;102203.66;;;8.57;83.88
64886;BME280;51514;52.206;5.114;2024-03-06T07:20:09;102207.72;;;8.63;84.02
64886;BME280;51514;52.206;5.114;2024-03-06T07:22:35;102215.00;;;8.73;84.02
64886;BME280;51514;52.206;5.114;2024-03-06T07:25:01;102213.25;;;8.85;84.00
64886;BME280;51514;52.206;5.114;2024-03-06T07:27:30;102219.16;;;9.01;84.18
64886;BME280;51514;52.206;5.114;2024-03-06T07:29:58;102219.88;;;9.16;84.13
64886;BME280;51514;52.206;5.114;2024-03-06T07:32:23;102220.75;;;9.28;83.03
64886;BME280;51514;52.206;5.114;2024-03-06T07:34:49;102223.56;;;9.26;82.61
64886;BME280;51514;52.206;5.114;2024-03-06T07:37:14;102226.06;;;9.05;81.44
64886;BME280;51514;52.206;5.114;2024-03-06T07:39:40;102231.81;;;8.88;83.04
64886;BME280;51514;52.206;5.114;2024-03-06T07:42:06;102233.06;;;8.71;83.54
64886;BME280;51514;52.206;5.114;2024-03-06T07:44:31;102247.97;;;8.52;84.05
64886;BME280;51514;52.206;5.114;2024-03-06T07:46:56;102250.03;;;8.35;85.03
64886;BME280;51514;52.206;5.114;2024-03-06T07:49:22;102250.56;;;8.28;85.90
64886;BME280;51514;52.206;5.114;2024-03-06T07:51:47;102257.34;;;8.21;86.95
64886;BME280;51514;52.206;5.114;2024-03-06T07:54:13;102254.47;;;8.11;86.61
64886;BME280;51514;52.206;5.114;2024-03-06T07:56:38;102258.53;;;8.04;87.74
64886;BME280;51514;52.206;5.114;2024-03-06T07:59:04;102260.03;;;7.95;87.83
64886;BME280;51514;52.206;5.114;2024-03-06T08:01:30;102263.69;;;7.94;88.17
64886;BME280;51514;52.206;5.114;2024-03-06T08:03:57;102264.66;;;7.93;89.37
64886;BME280;51514;52.206;5.114;2024-03-06T08:06:22;102264.34;;;7.98;88.56
64886;BME280;51514;52.206;5.114;2024-03-06T08:08:47;102263.91;;;8.04;88.43
64886;BME280;51514;52.206;5.114;2024-03-06T08:11:13;102268.00;;;8.10;88.56
64886;BME280;51514;52.206;5.114;2024-03-06T08:13:39;102276.69;;;8.13;87.83
64886;BME280;51514;52.206;5.114;2024-03-06T08:16:05;102272.16;;;8.14;87.89
64886;BME280;51514;52.206;5.114;2024-03-06T08:18:32;102271.97;;;8.17;88.53
64886;BME280;51514;52.206;5.114;2024-03-06T08:20:58;102278.19;;;8.30;88.72
64886;BME280;51514;52.206;5.114;2024-03-06T08:23:23;102279.38;;;8.38;88.09
64886;BME280;51514;52.206;5.114;2024-03-06T08:25:50;102281.88;;;8.41;87.39
64886;BME280;51514;52.206;5.114;2024-03-06T08:28:15;102288.50;;;8.49;87.99
64886;BME280;51514;52.206;5.114;2024-03-06T08:30:41;102291.75;;;8.54;88.79
64886;BME280;51514;52.206;5.114;2024-03-06T08:33:06;102299.25;;;8.61;88.34
64886;BME280;51514;52.206;5.114;2024-03-06T08:35:32;102294.28;;;8.68;88.14
64886;BME280;51514;52.206;5.114;2024-03-06T08:37:57;102296.00;;;8.69;87.68
64886;BME280;51514;52.206;5.114;2024-03-06T08:40:22;102300.28;;;8.71;88.46
64886;BME280;51514;52.206;5.114;2024-03-06T08:42:50;102296.28;;;8.77;87.71
64886;BME280;51514;52.206;5.114;2024-03-06T08:45:16;102301.88;;;8.87;88.23
64886;BME280;51514;52.206;5.114;2024-03-06T08:47:44;102303.03;;;8.95;88.39
64886;BME280;51514;52.206;5.114;2024-03-06T08:50:10;102305.31;;;9.12;88.25
64886;BME280;51514;52.206;5.114;2024-03-06T08:52:36;102302.25;;;9.30;88.17
64886;BME280;51514;52.206;5.114;2024-03-06T08:55:02;102302.91;;;9.44;87.96
64886;BME280;51514;52.206;5.114;2024-03-06T08:57:37;102308.47;;;9.54;87.06
64886;BME280;51514;52.206;5.114;2024-03-06T09:00:07;102315.34;;;9.58;86.24
64886;BME280;51514;52.206;5.114;2024-03-06T09:02:36;102320.25;;;9.64;86.14
64886;BME280;51514;52.206;5.114;2024-03-06T09:05:08;102324.22;;;9.71;86.30
64886;BME280;51514;52.206;5.114;2024-03-06T09:07:35;102338.16;;;9.76;85.69
64886;BME280;51514;52.206;5.114;2024-03-06T09:10:12;102340.75;;;9.78;85.70
64886;BME280;51514;52.206;5.114;2024-03-06T09:12:39;102331.09;;;9.86;85.77
64886;BME280;51514;52.206;5.114;2024-03-06T09:15:05;102336.03;;;9.93;84.66
64886;BME280;51514;52.206;5.114;2024-03-06T09:17:32;102339.47;;;9.95;85.32
64886;BME280;51514;52.206;5.114;2024-03-06T09:19:58;102339.75;;;10.03;85.29
64886;BME280;51514;52.206;5.114;2024-03-06T09:22:23;102341.59;;;10.13;85.25
64886;BME280;51514;52.206;5.114;2024-03-06T09:24:49;102336.84;;;10.28;84.83
64886;BME280;51514;52.206;5.114;2024-03-06T09:27:16;102342.03;;;10.42;83.84
64886;BME280;51514;52.206;5.114;2024-03-06T09:29:42;102342.28;;;10.61;82.96
64886;BME280;51514;52.206;5.114;2024-03-06T09:32:10;102343.41;;;10.81;82.35
64886;BME280;51514;52.206;5.114;2024-03-06T09:34:38;102348.94;;;10.80;81.10
64886;BME280;51514;52.206;5.114;2024-03-06T09:37:04;102343.53;;;10.91;80.76
64886;BME280;51514;52.206;5.114;2024-03-06T09:39:29;102349.22;;;11.20;82.71
64886;BME280;51514;52.206;5.114;2024-03-06T09:41:54;102356.66;;;11.39;80.60
64886;BME280;51514;52.206;5.114;2024-03-06T09:44:22;102359.56;;;11.47;79.63
64886;BME280;51514;52.206;5.114;2024-03-06T09:46:48;102372.38;;;11.45;78.04
64886;BME280;51514;52.206;5.114;2024-03-06T09:49:16;102369.44;;;11.80;79.70
64886;BME280;51514;52.206;5.114;2024-03-06T09:51:44;102376.94;;;12.08;79.26
64886;BME280;51514;52.206;5.114;2024-03-06T09:54:16;102367.72;;;12.11;76.57
64886;BME280;51514;52.206;5.114;2024-03-06T09:56:46;102379.44;;;12.00;76.23
64886;BME280;51514;52.206;5.114;2024-03-06T09:59:12;102375.88;;;11.99;77.19
64886;BME280;51514;52.206;5.114;2024-03-06T10:01:54;102378.84;;;12.17;77.29
64886;BME280;51514;52.206;5.114;2024-03-06T10:04:21;102378.09;;;12.36;77.48
64886;BME280;51514;52.206;5.114;2024-03-06T10:06:47;102381.03;;;12.74;76.73
64886;BME280;51514;52.206;5.114;2024-03-06T10:09:16;102385.25;;;13.19;75.75
64886;BME280;51514;52.206;5.114;2024-03-06T10:11:42;102387.63;;;13.62;74.20
64886;BME280;51514;52.206;5.114;2024-03-06T10:14:08;102384.75;;;14.02;70.28
64886;BME280;51514;52.206;5.114;2024-03-06T10:16:35;102387.53;;;14.68;70.38
64886;BME280;51514;52.206;5.114;2024-03-06T10:19:17;102381.59;;;14.91;67.47
64886;BME280;51514;52.206;5.114;2024-03-06T10:21:46;102390.63;;;15.10;64.61
64886;BME280;51514;52.206;5.114;2024-03-06T10:24:11;102396.38;;;15.07;64.84
64886;BME280;51514;52.206;5.114;2024-03-06T10:26:37;102390.44;;;15.21;63.46
64886;BME280;51514;52.206;5.114;2024-03-06T10:29:03;102391.34;;;15.66;63.69
64886;BME280;51514;52.206;5.114;2024-03-06T10:31:28;102398.94;;;15.81;60.87
64886;BME280;51514;52.206;5.114;2024-03-06T10:33:54;102391.47;;;15.83;61.03
64886;BME280;51514;52.206;5.114;2024-03-06T10:36:24;102396.38;;;15.97;61.16
64886;BME280;51514;52.206;5.114;2024-03-06T10:38:53;102388.19;;;16.15;60.33
64886;BME280;51514;52.206;5.114;2024-03-06T10:41:23;102394.94;;;16.98;58.90
64886;BME280;51514;52.206;5.114;2024-03-06T10:43:52;102386.59;;;17.49;59.33
64886;BME280;51514;52.206;5.114;2024-03-06T10:46:20;102390.09;;;18.08;57.85
64886;BME280;51514;52.206;5.114;2024-03-06T10:48:46;102389.03;;;18.50;54.16
64886;BME280;51514;52.206;5.114;2024-03-06T10:51:15;102392.63;;;18.75;53.53
64886;BME280;51514;52.206;5.114;2024-03-06T10:53:41;102393.94;;;18.95;50.76
64886;BME280;51514;52.206;5.114;2024-03-06T10:56:08;102392.22;;;18.94;51.25
64886;BME280;51514;52.206;5.114;2024-03-06T10:58:34;102398.91;;;18.91;50.39
64886;BME280;51514;52.206;5.114;2024-03-06T11:01:01;102396.56;;;18.72;51.85
64886;BME280;51514;52.206;5.114;2024-03-06T11:03:29;102398.56;;;18.86;53.02
64886;BME280;51514;52.206;5.114;2024-03-06T11:05:56;102394.22;;;19.08;49.37
64886;BME280;51514;52.206;5.114;2024-03-06T11:08:24;102397.66;;;19.10;51.33
64886;BME280;51514;52.206;5.114;2024-03-06T11:10:51;102395.84;;;19.25;49.50
64886;BME280;51514;52.206;5.114;2024-03-06T11:15:42;102397.53;;;19.35;49.17
64886;BME280;51514;52.206;5.114;2024-03-06T11:20:59;102389.69;;;19.31;50.91
64886;BME280;51514;52.206;5.114;2024-03-06T11:24:16;102396.13;;;19.39;49.84
64886;BME280;51514;52.206;5.114;2024-03-06T11:26:50;102402.31;;;19.72;48.09
64886;BME280;51514;52.206;5.114;2024-03-06T11:29:22;102404.53;;;19.99;47.64
64886;BME280;51514;52.206;5.114;2024-03-06T11:32:03;102406.59;;;20.20;45.18
64886;BME280;51514;52.206;5.114;2024-03-06T11:34:33;102400.19;;;20.04;46.83
64886;BME280;51514;52.206;5.114;2024-03-06T11:36:59;102402.69;;;19.91;48.24
64886;BME280;51514;52.206;5.114;2024-03-06T11:39:28;102402.56;;;20.08;47.11
64886;BME280;51514;52.206;5.114;2024-03-06T11:41:59;102399.94;;;19.91;46.90
64886;BME280;51514;52.206;5.114;2024-03-06T11:44:27;102402.00;;;19.66;48.45
64886;BME280;51514;52.206;5.114;2024-03-06T11:49:28;102410.59;;;19.24;45.92
64886;BME280;51514;52.206;5.114;2024-03-06T11:52:04;102410.41;;;18.63;48.41
64886;BME280;51514;52.206;5.114;2024-03-06T11:54:31;102405.97;;;18.29;49.53
64886;BME280;51514;52.206;5.114;2024-03-06T11:56:58;102407.88;;;18.12;48.48
64886;BME280;51514;52.206;5.114;2024-03-06T11:59:26;102420.44;;;17.81;49.20
64886;BME280;51514;52.206;5.114;2024-03-06T12:01:52;102416.75;;;17.40;50.24
64886;BME280;51514;52.206;5.114;2024-03-06T12:04:19;102410.66;;;17.12;50.74
64886;BME280;51514;52.206;5.114;2024-03-06T12:06:45;102416.31;;;16.85;53.01
64886;BME280;51514;52.206;5.114;2024-03-06T12:09:11;102426.63;;;16.73;54.45
64886;BME280;51514;52.206;5.114;2024-03-06T12:11:37;102416.69;;;16.64;54.00
64886;BME280;51514;52.206;5.114;2024-03-06T12:14:03;102419.00;;;16.59;52.59
64886;BME280;51514;52.206;5.114;2024-03-06T12:16:28;102414.31;;;16.43;53.37
64886;BME280;51514;52.206;5.114;2024-03-06T12:18:57;102418.53;;;16.20;54.35
64886;BME280;51514;52.206;5.114;2024-03-06T12:21:28;102418.13;;;16.15;54.77
64886;BME280;51514;52.206;5.114;2024-03-06T12:24:09;102424.06;;;16.10;55.77
64886;BME280;51514;52.206;5.114;2024-03-06T12:26:36;102416.41;;;16.14;54.20
64886;BME280;51514;52.206;5.114;2024-03-06T12:31:31;102412.53;;;16.16;52.65
64886;BME280;51514;52.206;5.114;2024-03-06T12:33:57;102420.84;;;16.15;54.32
64886;BME280;51514;52.206;5.114;2024-03-06T12:36:27;102423.88;;;16.12;53.41
64886;BME280;51514;52.206;5.114;2024-03-06T12:38:55;102425.94;;;16.10;54.70
64886;BME280;51514;52.206;5.114;2024-03-06T12:41:21;102420.47;;;16.10;52.97
64886;BME280;51514;52.206;5.114;2024-03-06T12:43:46;102419.63;;;16.09;52.74
64886;BME280;51514;52.206;5.114;2024-03-06T12:46:11;102421.00;;;16.13;53.24
64886;BME280;51514;52.206;5.114;2024-03-06T12:48:37;102421.09;;;16.21;54.01
64886;BME280;51514;52.206;5.114;2024-03-06T12:51:02;102416.31;;;16.23;52.52
64886;BME280;51514;52.206;5.114;2024-03-06T12:53:30;102412.03;;;16.38;51.95
64886;BME280;51514;52.206;5.114;2024-03-06T12:55:56;102419.81;;;16.33;50.84
64886;BME280;51514;52.206;5.114;2024-03-06T12:58:21;102416.25;;;16.33;49.69
64886;BME280;51514;52.206;5.114;2024-03-06T13:00:46;102417.09;;;16.33;50.14
64886;BME280;51514;52.206;5.114;2024-03-06T13:03:12;102415.78;;;16.37;50.37
64886;BME280;51514;52.206;5.114;2024-03-06T13:05:37;102415.31;;;16.42;50.69